sensor_id;sensor_type;location;lat;lon;timestamp;pressure;altitude;pressure_sealevel;temperature;humidity
5283;BME280;15376;48.540;9.268;2022-10-26T00:02:24;97538.16;;;10.53;100.00
5283;BME280;15376;48.540;9.268;2022-10-26T00:04:50;97531.19;;;10.52;100.00
5283;BME280;15376;48.540;9.268;2022-10-26T00:07:15;97530.72;;;10.49;100.00
5283;BME280;15376;48.540;9.268;2022-10-26T00:09:41;97527.41;;;10.47;100.00
5283;BME280;15376;48.540;9.268;2022-10-26T00:12:06;97530.72;;;10.49;100.00
5283;BME280;15376;48.540;9.268;2022-10-26T00:14:31;97530.72;;;10.49;100.00
5283;BME280;15376;48.540;9.268;2022-10-26T00:16:57;97517.44;;;10.49;100.00
5283;BME280;15376;48.540;9.268;2022-10-26T00:19:22;97520.38;;;10.54;100.00
5283;BME280;15376;48.540;9.268;2022-10-26T00:21:48;97525.50;;;10.55;100.00
5283;BME280;15376;48.540;9.268;2022-10-26T00:24:13;97526.34;;;10.56;100.00
5283;BME280;15376;48.540;9.268;2022-10-26T00:26:39;97529.63;;;10.58;100.00
5283;BME280;15376;48.540;9.268;2022-10-26T00:29:06;97516.06;;;10.53;100.00
5283;BME280;15376;48.540;9.268;2022-10-26T00:31:31;97500.69;;;10.48;100.00
5283;BME280;15376;48.540;9.268;2022-10-26T00:33:57;97525.63;;;10.62;100.00
5283;BME280;15376;48.540;9.268;2022-10-26T00:36:24;97515.72;;;10.56;100.00
5283;BME280;15376;48.540;9.268;2022-10-26T00:38:54;97525.63;;;10.62;100.00
5283;BME280;15376;48.540;9.268;2022-10-26T00:41:22;97525.63;;;10.62;100.00
5283;BME280;15376;48.540;9.268;2022-10-26T00:43:49;97528.09;;;10.63;100.00
5283;BME280;15376;48.540;9.268;2022-10-26T00:46:17;97532.22;;;10.66;100.00
5283;BME280;15376;48.540;9.268;2022-10-26T00:48:48;97527.25;;;10.63;100.00
5283;BME280;15376;48.540;9.268;2022-10-26T00:51:26;97535.50;;;10.68;100.00
5283;BME280;15376;48.540;9.268;2022-10-26T00:53:56;97527.53;;;10.68;100.00
5283;BME280;15376;48.540;9.268;2022-10-26T00:56:23;97531.50;;;10.72;100.00
5283;BME280;15376;48.540;9.268;2022-10-26T00:58:49;97525.06;;;10.66;100.00
5283;BME280;15376;48.540;9.268;2022-10-26T01:01:15;97530.47;;;10.73;100.00
5283;BME280;15376;48.540;9.268;2022-10-26T01:03:41;97525.69;;;10.83;100.00
5283;BME280;15376;48.540;9.268;2022-10-26T01:06:07;97515.91;;;10.84;100.00
5283;BME280;15376;48.540;9.268;2022-10-26T01:08:36;97530.56;;;10.94;100.00
5283;BME280;15376;48.540;9.268;2022-10-26T01:11:02;97529.53;;;10.95;100.00
5283;BME280;15376;48.540;9.268;2022-10-26T01:13:30;97521.41;;;10.97;100.00
5283;BME280;15376;48.540;9.268;2022-10-26T01:24:03;97513.88;;;11.00;100.00
5283;BME280;15376;48.540;9.268;2022-10-26T01:26:50;97492.34;;;10.95;100.00
5283;BME280;15376;48.540;9.268;2022-10-26T01:32:39;97476.03;;;10.84;100.00
5283;BME280;15376;48.540;9.268;2022-10-26T01:37:47;97478.06;;;10.82;100.00
5283;BME280;15376;48.540;9.268;2022-10-26T01:40:26;97481.34;;;10.84;100.00
5283;BME280;15376;48.540;9.268;2022-10-26T01:42:56;97486.13;;;10.88;100.00
5283;BME280;15376;48.540;9.268;2022-10-26T01:45:23;97494.47;;;10.85;100.00
5283;BME280;15376;48.540;9.268;2022-10-26T01:47:51;97489.63;;;10.74;100.00
5283;BME280;15376;48.540;9.268;2022-10-26T01:50:18;97491.28;;;10.75;100.00
5283;BME280;15376;48.540;9.268;2022-10-26T01:52:48;97481.75;;;10.66;100.00
5283;BME280;15376;48.540;9.268;2022-10-26T01:55:38;97491.81;;;10.71;100.00
5283;BME280;15376;48.540;9.268;2022-10-26T02:00:59;97483.69;;;10.72;100.00
5283;BME280;15376;48.540;9.268;2022-10-26T02:03:38;97492.94;;;10.76;100.00
5283;BME280;15376;48.540;9.268;2022-10-26T02:09:07;97476.00;;;10.77;100.00
5283;BME280;15376;48.540;9.268;2022-10-26T02:11:42;97470.69;;;10.77;100.00
5283;BME280;15376;48.540;9.268;2022-10-26T02:14:17;97472.69;;;10.75;100.00
5283;BME280;15376;48.540;9.268;2022-10-26T02:16:54;97479.19;;;10.73;100.00
5283;BME280;15376;48.540;9.268;2022-10-26T02:19:44;97467.47;;;10.67;100.00
5283;BME280;15376;48.540;9.268;2022-10-26T02:22:22;97473.78;;;10.66;100.00
5283;BME280;15376;48.540;9.268;2022-10-26T02:24:51;97474.50;;;10.60;100.00
5283;BME280;15376;48.540;9.268;2022-10-26T02:27:25;97474.50;;;10.60;100.00
5283;BME280;15376;48.540;9.268;2022-10-26T02:29:54;97493.38;;;10.65;100.00
5283;BME280;15376;48.540;9.268;2022-10-26T02:32:23;97496.03;;;10.65;100.00
5283;BME280;15376;48.540;9.268;2022-10-26T02:34:50;97500.53;;;10.64;100.00
5283;BME280;15376;48.540;9.268;2022-10-26T02:37:18;97495.69;;;10.68;100.00
5283;BME280;15376;48.540;9.268;2022-10-26T02:39:47;97490.28;;;10.61;100.00
5283;BME280;15376;48.540;9.268;2022-10-26T02:42:14;97488.34;;;10.55;100.00
5283;BME280;15376;48.540;9.268;2022-10-26T02:44:55;97502.00;;;10.67;100.00
5283;BME280;15376;48.540;9.268;2022-10-26T02:47:23;97511.78;;;10.66;100.00
5283;BME280;15376;48.540;9.268;2022-10-26T02:49:50;97511.69;;;10.60;100.00
5283;BME280;15376;48.540;9.268;2022-10-26T02:52:23;97513.34;;;10.61;100.00
5283;BME280;15376;48.540;9.268;2022-10-26T02:55:03;97526.25;;;10.64;100.00
5283;BME280;15376;48.540;9.268;2022-10-26T02:57:38;97541.19;;;10.65;100.00
5283;BME280;15376;48.540;9.268;2022-10-26T03:00:13;97538.16;;;10.68;100.00
5283;BME280;15376;48.540;9.268;2022-10-26T03:02:41;97519.94;;;10.65;100.00
5283;BME280;15376;48.540;9.268;2022-10-26T03:05:18;97539.81;;;10.84;100.00
5283;BME280;15376;48.540;9.268;2022-10-26T03:07:44;97546.41;;;10.88;100.00
5283;BME280;15376;48.540;9.268;2022-10-26T03:10:10;97532.84;;;10.83;100.00
5283;BME280;15376;48.540;9.268;2022-10-26T03:12:35;97538.06;;;10.91;100.00
5283;BME280;15376;48.540;9.268;2022-10-26T03:15:01;97534.94;;;10.87;100.00
5283;BME280;15376;48.540;9.268;2022-10-26T03:17:27;97541.09;;;10.88;100.00
5283;BME280;15376;48.540;9.268;2022-10-26T03:19:52;97557.13;;;10.94;100.00
5283;BME280;15376;48.540;9.268;2022-10-26T03:22:18;97567.38;;;10.97;100.00
5283;BME280;15376;48.540;9.268;2022-10-26T03:24:44;97569.59;;;10.94;100.00
5283;BME280;15376;48.540;9.268;2022-10-26T03:27:10;97584.34;;;10.96;100.00
5283;BME280;15376;48.540;9.268;2022-10-26T03:29:35;97598.19;;;11.07;100.00
5283;BME280;15376;48.540;9.268;2022-10-26T03:32:00;97612.31;;;11.07;100.00
5283;BME280;15376;48.540;9.268;2022-10-26T03:34:26;97617.72;;;11.14;100.00
5283;BME280;15376;48.540;9.268;2022-10-26T03:36:51;97606.53;;;11.18;100.00
5283;BME280;15376;48.540;9.268;2022-10-26T03:39:16;97588.34;;;11.22;100.00
5283;BME280;15376;48.540;9.268;2022-10-26T03:41:41;97569.09;;;11.20;100.00
5283;BME280;15376;48.540;9.268;2022-10-26T03:44:08;97568.66;;;11.31;100.00
5283;BME280;15376;48.540;9.268;2022-10-26T03:46:33;97571.66;;;11.28;100.00
5283;BME280;15376;48.540;9.268;2022-10-26T03:48:59;97568.00;;;11.29;100.00
5283;BME280;15376;48.540;9.268;2022-10-26T03:51:24;97568.38;;;11.26;100.00
5283;BME280;15376;48.540;9.268;2022-10-26T03:53:49;97564.44;;;11.22;100.00
5283;BME280;15376;48.540;9.268;2022-10-26T03:56:15;97588.34;;;11.22;100.00
5283;BME280;15376;48.540;9.268;2022-10-26T03:58:40;97592.47;;;11.24;100.00
5283;BME280;15376;48.540;9.268;2022-10-26T04:01:05;97583.31;;;11.27;100.00
5283;BME280;15376;48.540;9.268;2022-10-26T04:03:31;97584.22;;;11.34;100.00
5283;BME280;15376;48.540;9.268;2022-10-26T04:05:59;97555.63;;;11.36;100.00
5283;BME280;15376;48.540;9.268;2022-10-26T04:08:25;97529.41;;;11.33;100.00
5283;BME280;15376;48.540;9.268;2022-10-26T04:10:50;97517.88;;;11.26;100.00
5283;BME280;15376;48.540;9.268;2022-10-26T04:13:15;97540.03;;;11.33;100.00
5283;BME280;15376;48.540;9.268;2022-10-26T04:15:41;97535.00;;;11.23;100.00
5283;BME280;15376;48.540;9.268;2022-10-26T04:18:07;97535.38;;;11.20;100.00
5283;BME280;15376;48.540;9.268;2022-10-26T04:20:33;97554.44;;;11.24;100.00
5283;BME280;15376;48.540;9.268;2022-10-26T04:23:02;97558.75;;;11.25;100.00
5283;BME280;15376;48.540;9.268;2022-10-26T04:25:29;97554.06;;;11.27;100.00
5283;BME280;15376;48.540;9.268;2022-10-26T04:27:55;97546.47;;;11.24;100.00
5283;BME280;15376;48.540;9.268;2022-10-26T04:30:20;97557.88;;;11.18;100.00
5283;BME280;15376;48.540;9.268;2022-10-26T04:32:45;97562.78;;;11.21;100.00
5283;BME280;15376;48.540;9.268;2022-10-26T04:35:11;97556.22;;;11.17;100.00
5283;BME280;15376;48.540;9.268;2022-10-26T04:37:36;97547.59;;;11.15;100.00
5283;BME280;15376;48.540;9.268;2022-10-26T04:40:02;97558.47;;;11.20;100.00
5283;BME280;15376;48.540;9.268;2022-10-26T04:42:27;97551.97;;;11.22;100.00
5283;BME280;15376;48.540;9.268;2022-10-26T04:44:55;97549.50;;;11.21;100.00
5283;BME280;15376;48.540;9.268;2022-10-26T04:47:20;97548.47;;;11.22;100.00
5283;BME280;15376;48.540;9.268;2022-10-26T04:49:46;97547.22;;;11.18;100.00
5283;BME280;15376;48.540;9.268;2022-10-26T04:52:11;97547.59;;;11.15;100.00
5283;BME280;15376;48.540;9.268;2022-10-26T04:54:36;97546.78;;;11.14;100.00
5283;BME280;15376;48.540;9.268;2022-10-26T04:57:02;97554.28;;;11.11;100.00
5283;BME280;15376;48.540;9.268;2022-10-26T04:59:27;97541.38;;;11.08;100.00
5283;BME280;15376;48.540;9.268;2022-10-26T05:01:52;97541.28;;;11.01;100.00
5283;BME280;15376;48.540;9.268;2022-10-26T05:04:18;97550.91;;;11.02;100.00
5283;BME280;15376;48.540;9.268;2022-10-26T05:06:43;97553.47;;;10.95;100.00
5283;BME280;15376;48.540;9.268;2022-10-26T05:09:08;97552.19;;;10.91;100.00
5283;BME280;15376;48.540;9.268;2022-10-26T05:11:34;97546.03;;;10.91;100.00
5283;BME280;15376;48.540;9.268;2022-10-26T05:13:59;97549.69;;;10.90;100.00
5283;BME280;15376;48.540;9.268;2022-10-26T05:16:24;97556.38;;;10.86;100.00
5283;BME280;15376;48.540;9.268;2022-10-26T05:18:50;97556.75;;;10.83;100.00
5283;BME280;15376;48.540;9.268;2022-10-26T05:21:16;97537.81;;;10.71;100.00
5283;BME280;15376;48.540;9.268;2022-10-26T05:23:51;97552.38;;;10.75;100.00
5283;BME280;15376;48.540;9.268;2022-10-26T05:26:18;97560.16;;;10.77;100.00
5283;BME280;15376;48.540;9.268;2022-10-26T05:28:44;97540.47;;;10.71;100.00
5283;BME280;15376;48.540;9.268;2022-10-26T05:31:09;97552.00;;;10.78;100.00
5283;BME280;15376;48.540;9.268;2022-10-26T05:33:34;97549.06;;;10.73;100.00
5283;BME280;15376;48.540;9.268;2022-10-26T05:36:00;97554.44;;;10.80;100.00
5283;BME280;15376;48.540;9.268;2022-10-26T05:38:25;97556.75;;;10.83;100.00
5283;BME280;15376;48.540;9.268;2022-10-26T05:40:52;97554.09;;;10.83;100.00
5283;BME280;15376;48.540;9.268;2022-10-26T05:43:19;97556.66;;;10.91;100.00
5283;BME280;15376;48.540;9.268;2022-10-26T05:45:45;97554.66;;;10.93;100.00
5283;BME280;15376;48.540;9.268;2022-10-26T05:48:10;97550.53;;;10.90;100.00
5283;BME280;15376;48.540;9.268;2022-10-26T05:50:36;97564.47;;;10.92;100.00
5283;BME280;15376;48.540;9.268;2022-10-26T05:53:01;97552.53;;;10.88;100.00
5283;BME280;15376;48.540;9.268;2022-10-26T05:55:27;97569.41;;;10.95;100.00
5283;BME280;15376;48.540;9.268;2022-10-26T05:57:53;97560.78;;;10.93;100.00
5283;BME280;15376;48.540;9.268;2022-10-26T06:00:24;97581.13;;;11.01;100.00
5283;BME280;15376;48.540;9.268;2022-10-26T06:05:36;97581.31;;;10.99;100.00
5283;BME280;15376;48.540;9.268;2022-10-26T06:08:07;97592.41;;;11.03;100.00
5283;BME280;15376;48.540;9.268;2022-10-26T06:10:33;97601.50;;;11.09;100.00
5283;BME280;15376;48.540;9.268;2022-10-26T06:12:58;97604.59;;;11.12;100.00
5283;BME280;15376;48.540;9.268;2022-10-26T06:15:24;97598.66;;;11.10;100.00
5283;BME280;15376;48.540;9.268;2022-10-26T06:18:11;97612.41;;;11.14;100.00
5283;BME280;15376;48.540;9.268;2022-10-26T06:21:09;97612.03;;;11.17;100.00
5283;BME280;15376;48.540;9.268;2022-10-26T06:31:28;97617.88;;;11.27;100.00
5283;BME280;15376;48.540;9.268;2022-10-26T06:33:57;97607.53;;;11.32;100.00
5283;BME280;15376;48.540;9.268;2022-10-26T06:36:25;97625.66;;;11.43;100.00
5283;BME280;15376;48.540;9.268;2022-10-26T06:38:59;97621.25;;;11.50;100.00
5283;BME280;15376;48.540;9.268;2022-10-26T06:41:26;97617.50;;;11.59;100.00
5283;BME280;15376;48.540;9.268;2022-10-26T06:43:52;97633.13;;;11.69;100.00
5283;BME280;15376;48.540;9.268;2022-10-26T06:49:15;97635.56;;;11.79;100.00
5283;BME280;15376;48.540;9.268;2022-10-26T06:51:50;97639.38;;;11.91;100.00
5283;BME280;15376;48.540;9.268;2022-10-26T06:54:46;97655.75;;;12.09;100.00
5283;BME280;15376;48.540;9.268;2022-10-26T06:57:16;97649.09;;;12.20;100.00
5283;BME280;15376;48.540;9.268;2022-10-26T06:59:48;97662.22;;;12.21;100.00
5283;BME280;15376;48.540;9.268;2022-10-26T07:02:14;97654.50;;;12.26;100.00
5283;BME280;15376;48.540;9.268;2022-10-26T07:04:40;97661.94;;;12.31;100.00
5283;BME280;15376;48.540;9.268;2022-10-26T07:07:08;97665.69;;;12.37;100.00
5283;BME280;15376;48.540;9.268;2022-10-26T07:09:35;97666.50;;;12.37;100.00
5283;BME280;15376;48.540;9.268;2022-10-26T07:12:01;97663.50;;;12.47;100.00
5283;BME280;15376;48.540;9.268;2022-10-26T07:14:26;97652.72;;;12.55;100.00
5283;BME280;15376;48.540;9.268;2022-10-26T07:16:51;97670.03;;;12.65;100.00
5283;BME280;15376;48.540;9.268;2022-10-26T07:19:18;97675.06;;;12.82;100.00
5283;BME280;15376;48.540;9.268;2022-10-26T07:21:44;97678.31;;;12.98;100.00
5283;BME280;15376;48.540;9.268;2022-10-26T07:24:09;97679.38;;;13.04;100.00
5283;BME280;15376;48.540;9.268;2022-10-26T07:26:34;97684.38;;;13.14;100.00
5283;BME280;15376;48.540;9.268;2022-10-26T07:29:00;97686.50;;;13.18;100.00
5283;BME280;15376;48.540;9.268;2022-10-26T07:31:26;97687.72;;;13.22;100.00
5283;BME280;15376;48.540;9.268;2022-10-26T07:33:52;97697.03;;;13.33;100.00
5283;BME280;15376;48.540;9.268;2022-10-26T07:36:18;97694.84;;;13.43;100.00
5283;BME280;15376;48.540;9.268;2022-10-26T07:38:43;97703.72;;;13.50;100.00
5283;BME280;15376;48.540;9.268;2022-10-26T07:41:08;97691.22;;;13.51;100.00
5283;BME280;15376;48.540;9.268;2022-10-26T07:43:34;97700.97;;;13.72;100.00
5283;BME280;15376;48.540;9.268;2022-10-26T07:45:59;97709.84;;;13.79;100.00
5283;BME280;15376;48.540;9.268;2022-10-26T07:48:24;97711.13;;;13.89;100.00
5283;BME280;15376;48.540;9.268;2022-10-26T07:50:50;97703.16;;;13.96;100.00
5283;BME280;15376;48.540;9.268;2022-10-26T07:53:15;97714.28;;;14.13;100.00
5283;BME280;15376;48.540;9.268;2022-10-26T07:55:40;97722.72;;;14.16;100.00
5283;BME280;15376;48.540;9.268;2022-10-26T07:58:06;97727.72;;;14.26;100.00
5283;BME280;15376;48.540;9.268;2022-10-26T08:00:31;97726.88;;;14.25;100.00
5283;BME280;15376;48.540;9.268;2022-10-26T08:02:56;97726.09;;;14.38;100.00
5283;BME280;15376;48.540;9.268;2022-10-26T08:05:22;97732.53;;;14.50;100.00
5283;BME280;15376;48.540;9.268;2022-10-26T08:07:47;97722.47;;;14.59;100.00
5283;BME280;15376;48.540;9.268;2022-10-26T08:10:14;97720.69;;;14.79;100.00
5283;BME280;15376;48.540;9.268;2022-10-26T08:12:41;97726.00;;;14.92;100.00
5283;BME280;15376;48.540;9.268;2022-10-26T08:15:07;97733.44;;;15.04;100.00
5283;BME280;15376;48.540;9.268;2022-10-26T08:17:33;97721.72;;;15.05;100.00
5283;BME280;15376;48.540;9.268;2022-10-26T08:19:58;97726.44;;;15.22;100.00
5283;BME280;15376;48.540;9.268;2022-10-26T08:22:24;97728.69;;;15.32;100.00
5283;BME280;15376;48.540;9.268;2022-10-26T08:24:49;97740.63;;;15.36;100.00
5283;BME280;15376;48.540;9.268;2022-10-26T08:27:15;97743.09;;;15.38;100.00
5283;BME280;15376;48.540;9.268;2022-10-26T08:29:41;97735.28;;;15.29;100.00
5283;BME280;15376;48.540;9.268;2022-10-26T08:32:07;97745.38;;;15.34;100.00
5283;BME280;15376;48.540;9.268;2022-10-26T08:34:32;97738.78;;;15.23;100.00
5283;BME280;15376;48.540;9.268;2022-10-26T08:36:58;97736.53;;;15.14;100.00
5283;BME280;15376;48.540;9.268;2022-10-26T08:39:23;97748.03;;;15.21;100.00
5283;BME280;15376;48.540;9.268;2022-10-26T08:41:57;97753.59;;;15.26;100.00
5283;BME280;15376;48.540;9.268;2022-10-26T08:44:49;97751.94;;;15.25;100.00
5283;BME280;15376;48.540;9.268;2022-10-26T08:47:36;97754.63;;;15.31;100.00
5283;BME280;15376;48.540;9.268;2022-10-26T08:50:15;97751.34;;;15.36;100.00
5283;BME280;15376;48.540;9.268;2022-10-26T08:52:50;97769.47;;;15.47;100.00
5283;BME280;15376;48.540;9.268;2022-10-26T08:55:20;97760.41;;;15.61;100.00
5283;BME280;15376;48.540;9.268;2022-10-26T08:57:52;97763.69;;;15.70;100.00
5283;BME280;15376;48.540;9.268;2022-10-26T09:00:21;97769.03;;;15.83;100.00
5283;BME280;15376;48.540;9.268;2022-10-26T09:02:51;97748.03;;;15.74;100.00
5283;BME280;15376;48.540;9.268;2022-10-26T09:05:21;97763.56;;;16.23;100.00
5283;BME280;15376;48.540;9.268;2022-10-26T09:19:51;97784.94;;;17.19;100.00
5283;BME280;15376;48.540;9.268;2022-10-26T09:25:02;97789.69;;;17.17;100.00
5283;BME280;15376;48.540;9.268;2022-10-26T09:27:40;97780.31;;;17.26;100.00
5283;BME280;15376;48.540;9.268;2022-10-26T09:30:16;97782.50;;;17.36;100.00
5283;BME280;15376;48.540;9.268;2022-10-26T09:32:49;97784.00;;;17.31;100.00
5283;BME280;15376;48.540;9.268;2022-10-26T09:35:22;97788.19;;;17.21;100.00
5283;BME280;15376;48.540;9.268;2022-10-26T09:37:54;97793.06;;;17.06;100.00
5283;BME280;15376;48.540;9.268;2022-10-26T09:40:34;97789.44;;;16.87;100.00
5283;BME280;15376;48.540;9.268;2022-10-26T09:43:19;97789.78;;;16.59;100.00
5283;BME280;15376;48.540;9.268;2022-10-26T09:45:52;97807.91;;;16.63;100.00
5283;BME280;15376;48.540;9.268;2022-10-26T09:48:35;97801.56;;;16.51;100.00
5283;BME280;15376;48.540;9.268;2022-10-26T09:51:02;97802.56;;;16.63;100.00
5283;BME280;15376;48.540;9.268;2022-10-26T09:53:28;97810.56;;;16.77;100.00
5283;BME280;15376;48.540;9.268;2022-10-26T09:56:00;97805.09;;;16.96;100.00
5283;BME280;15376;48.540;9.268;2022-10-26T09:58:29;97817.88;;;17.26;100.00
5283;BME280;15376;48.540;9.268;2022-10-26T10:00:56;97816.50;;;17.48;100.00
5283;BME280;15376;48.540;9.268;2022-10-26T10:03:30;97829.56;;;17.70;100.00
5283;BME280;15376;48.540;9.268;2022-10-26T10:06:22;97824.09;;;17.83;100.00
5283;BME280;15376;48.540;9.268;2022-10-26T10:09:11;97824.13;;;17.76;100.00
5283;BME280;15376;48.540;9.268;2022-10-26T10:11:38;97828.75;;;17.69;100.00
5283;BME280;15376;48.540;9.268;2022-10-26T10:14:11;97827.38;;;17.85;100.00
5283;BME280;15376;48.540;9.268;2022-10-26T10:16:39;97823.16;;;17.95;100.00
5283;BME280;15376;48.540;9.268;2022-10-26T10:19:05;97819.47;;;18.08;100.00
5283;BME280;15376;48.540;9.268;2022-10-26T10:21:38;97825.31;;;18.42;100.00
5283;BME280;15376;48.540;9.268;2022-10-26T10:24:28;97821.16;;;18.27;100.00
5283;BME280;15376;48.540;9.268;2022-10-26T10:27:18;97828.25;;;18.22;100.00
5283;BME280;15376;48.540;9.268;2022-10-26T10:29:45;97829.22;;;18.27;100.00
5283;BME280;15376;48.540;9.268;2022-10-26T10:32:20;97828.31;;;18.15;100.00
5283;BME280;15376;48.540;9.268;2022-10-26T10:34:53;97822.09;;;18.15;100.00
5283;BME280;15376;48.540;9.268;2022-10-26T10:37:29;97821.56;;;18.06;100.00
5283;BME280;15376;48.540;9.268;2022-10-26T10:40:00;97811.72;;;18.18;100.00
5283;BME280;15376;48.540;9.268;2022-10-26T10:42:30;97823.84;;;18.27;100.00
5283;BME280;15376;48.540;9.268;2022-10-26T10:44:57;97828.09;;;18.35;100.00
5283;BME280;15376;48.540;9.268;2022-10-26T10:47:30;97824.19;;;18.49;100.00
5283;BME280;15376;48.540;9.268;2022-10-26T10:52:32;97827.56;;;18.81;100.00
5283;BME280;15376;48.540;9.268;2022-10-26T10:57:57;97829.31;;;19.47;100.00
5283;BME280;15376;48.540;9.268;2022-10-26T11:00:25;97823.88;;;19.77;99.12
5283;BME280;15376;48.540;9.268;2022-10-26T11:06:00;97827.13;;;19.68;98.29
5283;BME280;15376;48.540;9.268;2022-10-26T11:08:29;97850.19;;;19.52;100.00
5283;BME280;15376;48.540;9.268;2022-10-26T11:13:30;97855.00;;;19.61;98.05
5283;BME280;15376;48.540;9.268;2022-10-26T11:16:03;97846.81;;;19.56;98.52
5283;BME280;15376;48.540;9.268;2022-10-26T11:18:37;97845.44;;;19.89;97.67
5283;BME280;15376;48.540;9.268;2022-10-26T11:21:32;97843.41;;;19.61;96.77
5283;BME280;15376;48.540;9.268;2022-10-26T11:26:57;97849.66;;;19.85;97.40
5283;BME280;15376;48.540;9.268;2022-10-26T11:32:55;97829.53;;;19.99;96.23
5283;BME280;15376;48.540;9.268;2022-10-26T11:35:31;97844.84;;;20.34;95.18
5283;BME280;15376;48.540;9.268;2022-10-26T11:38:15;97849.41;;;20.56;92.90
5283;BME280;15376;48.540;9.268;2022-10-26T11:43:17;97855.03;;;20.55;96.19
5283;BME280;15376;48.540;9.268;2022-10-26T11:45:56;97848.00;;;20.54;93.34
5283;BME280;15376;48.540;9.268;2022-10-26T11:48:32;97843.91;;;20.40;94.24
5283;BME280;15376;48.540;9.268;2022-10-26T11:51:00;97852.94;;;20.34;91.90
5283;BME280;15376;48.540;9.268;2022-10-26T11:53:35;97851.44;;;20.26;92.68
5283;BME280;15376;48.540;9.268;2022-10-26T11:56:04;97858.47;;;20.15;94.73
5283;BME280;15376;48.540;9.268;2022-10-26T11:58:35;97856.94;;;20.19;93.88
5283;BME280;15376;48.540;9.268;2022-10-26T12:01:07;97856.22;;;20.12;92.22
5283;BME280;15376;48.540;9.268;2022-10-26T12:03:37;97858.09;;;20.23;93.28
5283;BME280;15376;48.540;9.268;2022-10-26T12:06:08;97857.16;;;20.29;91.71
5283;BME280;15376;48.540;9.268;2022-10-26T12:08:42;97856.72;;;19.97;91.97
5283;BME280;15376;48.540;9.268;2022-10-26T12:11:15;97846.16;;;19.96;91.93
5283;BME280;15376;48.540;9.268;2022-10-26T12:13:51;97856.00;;;20.25;87.91
5283;BME280;15376;48.540;9.268;2022-10-26T12:18:57;97852.03;;;19.93;91.42
5283;BME280;15376;48.540;9.268;2022-10-26T12:21:28;97836.78;;;19.87;90.57
5283;BME280;15376;48.540;9.268;2022-10-26T12:23:59;97861.88;;;19.99;91.55
5283;BME280;15376;48.540;9.268;2022-10-26T12:39:40;97866.44;;;20.10;93.11
5283;BME280;15376;48.540;9.268;2022-10-26T12:47:04;97861.97;;;20.04;90.61
5283;BME280;15376;48.540;9.268;2022-10-26T12:52:40;97864.66;;;20.62;90.03
5283;BME280;15376;48.540;9.268;2022-10-26T12:58:11;97863.19;;;20.83;87.90
5283;BME280;15376;48.540;9.268;2022-10-26T13:00:49;97849.09;;;20.81;88.10
5283;BME280;15376;48.540;9.268;2022-10-26T13:09:30;97874.16;;;20.77;84.30
5283;BME280;15376;48.540;9.268;2022-10-26T13:11:57;97866.41;;;20.69;83.83
5283;BME280;15376;48.540;9.268;2022-10-26T13:16:55;97864.94;;;20.38;84.40
5283;BME280;15376;48.540;9.268;2022-10-26T13:22:00;97875.22;;;20.17;85.04
5283;BME280;15376;48.540;9.268;2022-10-26T13:24:28;97878.16;;;20.27;84.54
5283;BME280;15376;48.540;9.268;2022-10-26T13:29:30;97859.28;;;20.04;85.73
5283;BME280;15376;48.540;9.268;2022-10-26T13:31:56;97870.88;;;20.05;86.62
5283;BME280;15376;48.540;9.268;2022-10-26T13:34:24;97880.50;;;20.12;87.30
5283;BME280;15376;48.540;9.268;2022-10-26T13:37:10;97878.28;;;20.09;86.30
5283;BME280;15376;48.540;9.268;2022-10-26T13:39:39;97886.59;;;20.08;85.28
5283;BME280;15376;48.540;9.268;2022-10-26T13:42:07;97885.06;;;20.12;85.22
5283;BME280;15376;48.540;9.268;2022-10-26T13:44:42;97887.53;;;20.02;87.28
5283;BME280;15376;48.540;9.268;2022-10-26T13:47:14;97889.28;;;19.96;84.79
5283;BME280;15376;48.540;9.268;2022-10-26T13:49:44;97894.78;;;20.01;85.34
5283;BME280;15376;48.540;9.268;2022-10-26T13:52:15;97894.91;;;19.83;88.70
5283;BME280;15376;48.540;9.268;2022-10-26T13:54:48;97901.81;;;19.79;86.56
5283;BME280;15376;48.540;9.268;2022-10-26T13:57:19;97904.41;;;19.85;86.98
5283;BME280;15376;48.540;9.268;2022-10-26T13:59:46;97897.00;;;19.81;87.33
5283;BME280;15376;48.540;9.268;2022-10-26T14:02:22;97900.19;;;19.89;87.24
5283;BME280;15376;48.540;9.268;2022-10-26T14:05:00;97902.19;;;19.94;87.31
5283;BME280;15376;48.540;9.268;2022-10-26T14:07:43;97908.25;;;20.01;87.10
5283;BME280;15376;48.540;9.268;2022-10-26T14:12:47;97909.81;;;19.97;86.43
5283;BME280;15376;48.540;9.268;2022-10-26T14:15:13;97915.31;;;20.02;86.09
5283;BME280;15376;48.540;9.268;2022-10-26T14:17:39;97922.25;;;19.98;86.60
5283;BME280;15376;48.540;9.268;2022-10-26T14:20:05;97923.16;;;20.04;85.37
5283;BME280;15376;48.540;9.268;2022-10-26T14:22:30;97928.91;;;19.95;87.71
5283;BME280;15376;48.540;9.268;2022-10-26T14:24:57;97938.03;;;19.83;89.98
5283;BME280;15376;48.540;9.268;2022-10-26T14:27:27;97931.81;;;19.82;88.34
5283;BME280;15376;48.540;9.268;2022-10-26T14:29:55;97921.25;;;19.81;87.62
5283;BME280;15376;48.540;9.268;2022-10-26T14:32:28;97926.25;;;19.65;89.40
5283;BME280;15376;48.540;9.268;2022-10-26T14:34:56;97937.03;;;19.65;88.98
5283;BME280;15376;48.540;9.268;2022-10-26T14:37:45;97933.31;;;19.78;87.19
5283;BME280;15376;48.540;9.268;2022-10-26T14:40:16;97940.44;;;19.73;86.59
5283;BME280;15376;48.540;9.268;2022-10-26T14:42:44;97944.06;;;19.67;86.87
5283;BME280;15376;48.540;9.268;2022-10-26T14:45:29;97951.19;;;19.61;88.28
5283;BME280;15376;48.540;9.268;2022-10-26T14:47:55;97946.63;;;19.61;86.30
5283;BME280;15376;48.540;9.268;2022-10-26T14:50:23;97957.34;;;19.80;85.40
5283;BME280;15376;48.540;9.268;2022-10-26T14:52:53;97945.25;;;19.71;86.56
5283;BME280;15376;48.540;9.268;2022-10-26T14:55:19;97962.97;;;19.48;88.52
5283;BME280;15376;48.540;9.268;2022-10-26T14:57:47;97957.56;;;19.48;87.42
5283;BME280;15376;48.540;9.268;2022-10-26T15:00:16;97951.00;;;19.44;89.00
5283;BME280;15376;48.540;9.268;2022-10-26T15:02:44;97936.28;;;19.28;89.42
5283;BME280;15376;48.540;9.268;2022-10-26T15:05:27;97957.28;;;19.38;89.47
5283;BME280;15376;48.540;9.268;2022-10-26T15:07:54;97945.22;;;19.11;92.47